createdAt,value
2022-12-03T00:00:35.721Z,9.55
2022-12-03T00:03:02.403Z,10.02
2022-12-03T00:05:29.112Z,9.88
2022-12-03T00:07:55.736Z,10.23
2022-12-03T00:10:22.353Z,10.40
2022-12-03T00:12:48.903Z,9.82
2022-12-03T00:15:16.471Z,9.68
2022-12-03T00:17:43.041Z,9.45
2022-12-03T00:20:11.051Z,11.10
2022-12-03T00:22:37.644Z,9.98
2022-12-03T00:25:04.454Z,10.57
2022-12-03T00:27:31.099Z,12.00
2022-12-03T00:29:57.701Z,10.77
2022-12-03T00:32:24.276Z,10.23
2022-12-03T00:34:50.965Z,10.00
2022-12-03T00:37:17.711Z,10.35
2022-12-03T00:39:44.245Z,9.52
2022-12-03T00:42:10.851Z,9.88
2022-12-03T00:44:37.405Z,10.48
2022-12-03T00:47:04.268Z,10.32
2022-12-03T00:49:31.034Z,10.00
2022-12-03T00:51:57.576Z,10.02
2022-12-03T00:54:29.974Z,10.60
2022-12-03T00:56:58.388Z,10.93
2022-12-03T00:59:25.237Z,10.93
2022-12-03T01:01:51.932Z,10.40
2022-12-03T01:04:18.686Z,9.45
2022-12-03T01:06:45.367Z,10.38
2022-12-03T01:09:11.955Z,10.90
2022-12-03T01:11:38.767Z,10.35
2022-12-03T01:14:06.485Z,10.25
2022-12-03T01:16:33.291Z,10.18
2022-12-03T01:18:59.992Z,10.93
2022-12-03T01:21:26.577Z,12.10
2022-12-03T01:23:53.182Z,10.40
2022-12-03T01:26:19.806Z,11.52
2022-12-03T01:28:46.492Z,10.40
2022-12-03T01:31:31.392Z,11.40
2022-12-03T01:33:58.091Z,9.65
2022-12-03T01:36:24.666Z,11.50
2022-12-03T01:38:51.220Z,10.43
2022-12-03T01:41:17.872Z,10.32
2022-12-03T01:43:44.522Z,12.48
2022-12-03T01:46:13.786Z,11.75
2022-12-03T01:48:40.477Z,11.50
2022-12-03T01:51:07.320Z,10.15
2022-12-03T01:53:35.955Z,9.77
2022-12-03T01:56:02.554Z,11.57
2022-12-03T01:58:29.183Z,11.57
2022-12-03T02:01:01.109Z,11.57
2022-12-03T02:03:27.739Z,10.45
2022-12-03T02:05:54.314Z,11.65
2022-12-03T02:08:30.930Z,11.12
2022-12-03T02:11:03.118Z,11.40
2022-12-03T02:13:29.712Z,11.63
2022-12-03T02:15:56.286Z,11.12
2022-12-03T02:18:22.904Z,10.55
2022-12-03T02:21:15.927Z,11.70
2022-12-03T02:23:57.815Z,9.93
2022-12-03T02:26:24.389Z,11.25
2022-12-03T02:28:51.008Z,12.40
2022-12-03T02:31:17.730Z,11.12
2022-12-03T02:33:44.354Z,11.63
2022-12-03T02:36:11.067Z,9.85
2022-12-03T02:38:37.638Z,10.40
2022-12-03T02:41:06.715Z,11.27
2022-12-03T02:43:33.282Z,10.32
2022-12-03T02:46:00.252Z,10.68
2022-12-03T02:48:30.238Z,10.93
2022-12-03T02:51:04.406Z,10.25
2022-12-03T02:53:44.449Z,12.25
2022-12-03T02:56:12.280Z,10.75
2022-12-03T02:58:38.862Z,11.27
2022-12-03T03:01:05.567Z,10.45
2022-12-03T03:03:32.406Z,10.32
2022-12-03T03:05:59.539Z,11.15
2022-12-03T03:08:26.165Z,10.82
2022-12-03T03:10:52.722Z,11.00
2022-12-03T03:13:19.549Z,10.40
2022-12-03T03:15:46.224Z,12.15
2022-12-03T03:18:13.133Z,10.65
2022-12-03T03:20:39.773Z,10.98
2022-12-03T03:23:07.265Z,10.63
2022-12-03T03:25:33.813Z,10.77
2022-12-03T03:28:00.401Z,10.68
2022-12-03T03:30:26.977Z,11.38
2022-12-03T03:32:53.603Z,11.80
2022-12-03T03:35:20.208Z,13.05
2022-12-03T03:37:46.777Z,11.75
2022-12-03T03:40:13.849Z,11.98
2022-12-03T03:42:40.477Z,10.95
2022-12-03T03:45:08.035Z,12.63
2022-12-03T03:47:34.628Z,11.20
2022-12-03T03:50:01.221Z,10.45
2022-12-03T03:52:27.858Z,11.00
2022-12-03T03:54:54.620Z,13.23
2022-12-03T03:57:21.371Z,10.30
2022-12-03T03:59:47.965Z,11.55
2022-12-03T04:02:24.783Z,9.43
2022-12-03T04:04:51.813Z,10.05
2022-12-03T04:07:18.637Z,10.30
2022-12-03T04:09:45.252Z,10.80
2022-12-03T04:12:30.630Z,9.63
2022-12-03T04:14:57.744Z,10.50
2022-12-03T04:17:24.414Z,10.68
2022-12-03T04:19:50.969Z,11.35
2022-12-03T04:22:36.108Z,10.82
2022-12-03T04:25:21.509Z,10.07
2022-12-03T04:28:06.832Z,9.57
2022-12-03T04:30:33.412Z,12.45
2022-12-03T04:33:18.587Z,9.10
2022-12-03T04:35:45.234Z,9.60
2022-12-03T04:38:12.554Z,11.12
2022-12-03T04:40:58.545Z,11.10
2022-12-03T04:43:25.305Z,10.15
2022-12-03T04:45:51.970Z,9.98
2022-12-03T04:48:18.593Z,10.13
2022-12-03T04:50:45.249Z,9.63
2022-12-03T04:53:11.867Z,11.07
2022-12-03T04:55:38.488Z,9.80
2022-12-03T04:58:05.212Z,10.18
2022-12-03T05:00:31.903Z,9.15
2022-12-03T05:02:58.676Z,10.25
2022-12-03T05:05:25.338Z,10.00
2022-12-03T05:07:51.918Z,10.95
2022-12-03T05:10:18.531Z,9.85
2022-12-03T05:12:45.082Z,10.57
2022-12-03T05:15:11.628Z,10.13
2022-12-03T05:17:38.308Z,9.80
2022-12-03T05:20:23.953Z,9.90
2022-12-03T05:25:17.091Z,9.82
2022-12-03T05:27:43.699Z,10.50
2022-12-03T05:30:10.585Z,11.00
2022-12-03T05:32:38.439Z,9.57
2022-12-03T05:35:05.334Z,11.35
2022-12-03T05:37:31.903Z,10.07
2022-12-03T05:39:58.500Z,10.82
2022-12-03T05:42:43.638Z,10.00
2022-12-03T05:45:10.674Z,9.43
2022-12-03T05:47:37.265Z,10.43
2022-12-03T05:50:04.078Z,11.73
2022-12-03T05:52:47.962Z,10.07
2022-12-03T05:55:14.825Z,9.57
2022-12-03T06:01:02.290Z,11.65
2022-12-03T06:03:29.010Z,10.63
2022-12-03T06:05:55.747Z,10.73
2022-12-03T06:08:22.406Z,9.82
2022-12-03T06:10:49.021Z,10.32
2022-12-03T06:13:15.686Z,11.77
2022-12-03T06:15:44.184Z,10.43
2022-12-03T06:18:11.098Z,9.27
2022-12-03T06:20:37.892Z,10.13
2022-12-03T06:23:04.566Z,10.18
2022-12-03T06:25:31.150Z,9.40
2022-12-03T06:27:57.720Z,10.43
2022-12-03T06:30:24.321Z,10.15
2022-12-03T06:32:50.953Z,9.93
2022-12-03T06:35:17.495Z,9.90
2022-12-03T06:37:44.037Z,9.93
2022-12-03T06:40:11.103Z,10.45
2022-12-03T06:42:37.699Z,11.15
2022-12-03T06:45:04.723Z,12.07
2022-12-03T06:47:31.293Z,10.82
2022-12-03T06:49:57.880Z,10.75
2022-12-03T06:52:24.512Z,10.48
2022-12-03T06:54:51.236Z,11.00
2022-12-03T06:57:17.905Z,10.27
2022-12-03T06:59:44.449Z,10.40
2022-12-03T07:02:12.577Z,10.32
2022-12-03T07:04:52.770Z,12.60
2022-12-03T07:07:19.444Z,11.93
2022-12-03T07:09:45.985Z,10.48
2022-12-03T07:12:12.664Z,9.85
2022-12-03T07:14:39.250Z,11.05
2022-12-03T07:17:05.845Z,11.05
2022-12-03T07:19:33.166Z,10.55
2022-12-03T07:22:00.206Z,10.77
2022-12-03T07:24:26.782Z,10.98
2022-12-03T07:26:53.359Z,10.27
2022-12-03T07:29:19.941Z,11.02
2022-12-03T07:31:46.589Z,12.55
2022-12-03T07:34:13.226Z,11.07
2022-12-03T07:36:39.771Z,10.15
2022-12-03T07:39:06.349Z,10.20
2022-12-03T07:41:32.925Z,10.93
2022-12-03T07:43:59.521Z,11.98
2022-12-03T07:46:26.180Z,10.55
2022-12-03T07:48:52.793Z,12.30
2022-12-03T07:51:19.386Z,11.60
2022-12-03T07:53:45.934Z,10.35
2022-12-03T07:56:12.552Z,11.65
2022-12-03T07:58:39.179Z,10.38
2022-12-03T08:01:05.974Z,11.30
2022-12-03T08:03:32.642Z,10.55
2022-12-03T08:05:59.204Z,10.80
2022-12-03T08:08:25.797Z,11.73
2022-12-03T08:10:52.415Z,10.57
2022-12-03T08:13:19.193Z,11.18
2022-12-03T08:15:45.830Z,11.43
2022-12-03T08:18:14.946Z,13.02
2022-12-03T08:20:41.861Z,12.77
2022-12-03T08:23:14.717Z,11.12
2022-12-03T08:25:41.664Z,12.40
2022-12-03T08:28:12.368Z,11.18
2022-12-03T08:30:39.286Z,13.02
2022-12-03T08:33:31.031Z,12.50
2022-12-03T08:35:57.632Z,12.27
2022-12-03T08:38:25.249Z,11.40
2022-12-03T08:40:52.389Z,12.20
2022-12-03T08:43:26.149Z,12.35
2022-12-03T08:45:56.289Z,11.57
2022-12-03T08:48:37.098Z,12.55
2022-12-03T08:51:15.484Z,11.05
2022-12-03T08:53:54.286Z,12.93
2022-12-03T08:56:28.925Z,11.93
2022-12-03T08:58:57.781Z,11.18
2022-12-03T09:01:39.094Z,13.80
2022-12-03T09:04:16.582Z,11.02
2022-12-03T09:06:43.283Z,11.45
2022-12-03T09:09:09.860Z,11.23
2022-12-03T09:11:36.628Z,11.43
2022-12-03T09:14:03.454Z,11.27
2022-12-03T09:16:30.165Z,10.68
2022-12-03T09:18:56.821Z,11.38
2022-12-03T09:21:23.346Z,13.73
2022-12-03T09:23:49.904Z,11.30
2022-12-03T09:26:16.442Z,10.68
2022-12-03T09:28:43.078Z,12.18
2022-12-03T09:31:09.636Z,13.18
2022-12-03T09:33:36.186Z,10.52
2022-12-03T09:36:02.789Z,9.65
2022-12-03T09:38:29.401Z,11.98
2022-12-03T09:40:55.935Z,10.43
2022-12-03T09:43:24.433Z,10.30
2022-12-03T09:45:51.085Z,10.40
2022-12-03T09:48:18.558Z,11.10
2022-12-03T09:50:45.166Z,11.77
2022-12-03T09:53:17.751Z,11.85
2022-12-03T09:55:45.303Z,11.60
2022-12-03T09:58:12.916Z,11.15
2022-12-03T10:00:39.477Z,11.05
2022-12-03T10:03:06.389Z,11.73
2022-12-03T10:05:33.503Z,10.98
2022-12-03T10:08:10.409Z,11.45
2022-12-03T10:10:37.249Z,11.73
2022-12-03T10:13:04.038Z,11.88
2022-12-03T10:15:30.607Z,10.32
2022-12-03T10:17:58.316Z,11.07
2022-12-03T10:20:25.046Z,10.65
2022-12-03T10:22:51.798Z,12.88
2022-12-03T10:25:20.093Z,10.15
2022-12-03T10:28:02.830Z,11.63
2022-12-03T10:30:29.556Z,10.50
2022-12-03T10:32:57.601Z,12.63
2022-12-03T10:35:38.178Z,10.90
2022-12-03T10:38:19.414Z,11.50
2022-12-03T10:40:46.165Z,12.27
2022-12-03T10:43:18.803Z,9.18
2022-12-03T10:45:45.805Z,11.95
2022-12-03T10:48:13.589Z,10.77
2022-12-03T10:50:50.620Z,8.82
2022-12-03T10:53:17.744Z,9.45
2022-12-03T10:55:44.978Z,9.50
2022-12-03T10:58:24.361Z,10.38
2022-12-03T11:00:52.401Z,10.55
2022-12-03T11:03:21.381Z,9.20
2022-12-03T11:05:48.445Z,9.70
2022-12-03T11:08:19.913Z,9.82
2022-12-03T11:10:55.168Z,10.63
2022-12-03T11:13:29.189Z,9.90
2022-12-03T11:15:55.968Z,9.35
2022-12-03T11:18:37.998Z,10.15
2022-12-03T11:21:11.368Z,8.70
2022-12-03T11:23:46.942Z,9.23
2022-12-03T11:26:19.613Z,8.95
2022-12-03T11:28:46.469Z,10.88
2022-12-03T11:31:36.404Z,9.38
2022-12-03T11:34:14.909Z,10.20
2022-12-03T11:37:09.659Z,9.30
2022-12-03T11:39:48.192Z,8.75
2022-12-03T11:42:26.860Z,8.45
2022-12-03T11:45:05.451Z,9.95
2022-12-03T11:47:38.789Z,9.55
2022-12-03T11:50:18.142Z,9.35
2022-12-03T11:52:45.230Z,9.25
2022-12-03T11:55:30.369Z,9.27
2022-12-03T11:58:04.346Z,9.07
2022-12-03T12:00:30.925Z,8.50
2022-12-03T12:02:58.083Z,7.78
2022-12-03T12:05:27.632Z,8.95
2022-12-03T12:07:54.455Z,8.25
2022-12-03T12:10:46.776Z,8.27
2022-12-03T12:13:31.736Z,7.85
2022-12-03T12:15:59.214Z,9.65
2022-12-03T12:18:55.014Z,8.88
2022-12-03T12:22:17.329Z,7.75
2022-12-03T12:24:47.569Z,8.02
2022-12-03T12:27:23.805Z,7.75
2022-12-03T12:29:55.051Z,7.97
2022-12-03T12:32:47.793Z,8.85
2022-12-03T12:35:21.653Z,8.57
2022-12-03T12:37:58.124Z,8.65
2022-12-03T12:40:27.940Z,7.93
2022-12-03T12:42:57.550Z,7.82
2022-12-03T12:45:44.658Z,8.75
2022-12-03T12:48:19.988Z,6.95
2022-12-03T12:50:47.569Z,7.65
2022-12-03T12:53:27.179Z,7.68
2022-12-03T12:56:01.326Z,7.40
2022-12-03T12:58:31.965Z,9.57
2022-12-03T13:01:05.454Z,9.07
2022-12-03T13:03:37.104Z,8.40
2022-12-03T13:06:03.802Z,7.87
2022-12-03T13:08:45.784Z,8.43
2022-12-03T13:11:24.567Z,8.55
2022-12-03T13:13:51.229Z,8.57
2022-12-03T13:16:33.715Z,7.30
2022-12-03T13:19:00.571Z,7.55
2022-12-03T13:21:40.425Z,7.45
2022-12-03T13:24:32.304Z,7.28
2022-12-03T13:27:00.088Z,8.00
2022-12-03T13:29:27.192Z,8.27
2022-12-03T13:32:01.888Z,8.07
2022-12-03T13:34:33.483Z,8.57
2022-12-03T13:37:05.197Z,8.48
2022-12-03T13:39:35.849Z,7.00
2022-12-03T13:42:38.856Z,9.25
2022-12-03T13:45:17.639Z,9.63
2022-12-03T13:47:45.658Z,7.12
2022-12-03T13:50:23.356Z,7.90
2022-12-03T13:52:50.005Z,8.68
2022-12-03T13:55:25.652Z,7.82
2022-12-03T14:00:19.168Z,7.70
2022-12-03T14:02:45.833Z,7.45
2022-12-03T14:05:12.509Z,8.07
2022-12-03T14:07:39.277Z,8.70
2022-12-03T14:10:07.343Z,7.50
2022-12-03T14:12:34.028Z,6.97
2022-12-03T14:15:01.713Z,7.65
2022-12-03T14:17:28.393Z,7.00
2022-12-03T14:19:55.067Z,8.07
2022-12-03T14:22:23.404Z,7.47
2022-12-03T14:24:50.354Z,7.47
2022-12-03T14:27:16.905Z,7.32
2022-12-03T14:29:43.450Z,8.70
2022-12-03T14:32:10.180Z,8.13
2022-12-03T14:34:36.796Z,7.22
2022-12-03T14:37:03.409Z,7.12
2022-12-03T14:39:30.007Z,7.82
2022-12-03T14:42:14.666Z,8.07
2022-12-03T14:44:42.724Z,7.45
2022-12-03T14:47:09.650Z,7.57
2022-12-03T14:49:36.367Z,7.85
2022-12-03T14:52:03.114Z,7.90
2022-12-03T14:54:30.085Z,8.38
2022-12-03T14:56:56.732Z,7.87
2022-12-03T14:59:27.649Z,7.37
2022-12-03T15:01:54.849Z,8.90
2022-12-03T15:04:21.596Z,8.70
2022-12-03T15:06:48.212Z,7.85
2022-12-03T15:09:14.803Z,8.48
2022-12-03T15:11:45.894Z,8.00
2022-12-03T15:14:13.018Z,8.85
2022-12-03T15:16:39.659Z,6.97
2022-12-03T15:19:06.283Z,7.37
2022-12-03T15:21:34.892Z,7.53
2022-12-03T15:24:02.184Z,8.23
2022-12-03T15:26:28.826Z,8.27
2022-12-03T15:28:55.386Z,7.68
2022-12-03T15:31:22.051Z,7.72
2022-12-03T15:33:48.841Z,8.50
2022-12-03T15:36:15.454Z,8.77
2022-12-03T15:38:42.043Z,8.55
2022-12-03T15:41:28.866Z,7.68
2022-12-03T15:43:59.918Z,7.62
2022-12-03T15:46:28.003Z,9.40
2022-12-03T15:48:55.221Z,8.00
2022-12-03T15:51:21.827Z,7.78
2022-12-03T15:53:48.432Z,8.65
2022-12-03T15:56:15.008Z,6.82
2022-12-03T15:58:41.638Z,7.40
2022-12-03T16:01:08.649Z,7.57
2022-12-03T16:03:35.524Z,8.80
2022-12-03T16:06:02.106Z,8.15
2022-12-03T16:08:28.690Z,7.15
2022-12-03T16:10:55.269Z,8.30
2022-12-03T16:13:21.831Z,7.37
2022-12-03T16:15:48.442Z,7.70
2022-12-03T16:18:15.062Z,7.60
2022-12-03T16:20:41.596Z,9.07
2022-12-03T16:23:08.277Z,7.18
2022-12-03T16:25:34.874Z,7.30
2022-12-03T16:28:01.433Z,8.48
2022-12-03T16:30:28.043Z,8.82
2022-12-03T16:32:54.641Z,10.57
2022-12-03T16:35:21.198Z,8.77
2022-12-03T16:37:47.753Z,7.85
2022-12-03T16:40:14.323Z,8.25
2022-12-03T16:42:40.985Z,8.48
2022-12-03T16:45:08.375Z,8.45
2022-12-03T16:47:35.259Z,7.57
2022-12-03T16:50:02.589Z,9.40
2022-12-03T16:52:29.174Z,8.40
2022-12-03T16:54:55.749Z,9.05
2022-12-03T16:57:22.302Z,8.15
2022-12-03T16:59:48.878Z,8.45
2022-12-03T17:02:15.591Z,8.35
2022-12-03T17:04:42.220Z,8.90
2022-12-03T17:07:08.769Z,6.97
2022-12-03T17:09:35.337Z,8.15
2022-12-03T17:12:01.932Z,7.90
2022-12-03T17:14:33.065Z,9.20
2022-12-03T17:17:00.122Z,8.77
2022-12-03T17:19:26.710Z,8.98
2022-12-03T17:21:54.332Z,7.70
2022-12-03T17:24:21.438Z,10.68
2022-12-03T17:26:48.102Z,8.15
2022-12-03T17:29:14.667Z,8.35
2022-12-03T17:31:42.630Z,10.55
2022-12-03T17:34:09.764Z,9.63
2022-12-03T17:36:36.339Z,8.02
2022-12-03T17:39:02.926Z,9.95
2022-12-03T17:41:29.614Z,9.63
2022-12-03T17:43:56.189Z,8.68
2022-12-03T17:46:22.841Z,8.82
2022-12-03T17:48:49.639Z,8.85
2022-12-03T17:51:16.259Z,9.57
2022-12-03T17:53:42.880Z,8.50
2022-12-03T17:56:09.652Z,7.35
2022-12-03T17:58:36.244Z,8.43
2022-12-03T18:01:03.444Z,9.45
2022-12-03T18:03:30.548Z,10.77
2022-12-03T18:05:57.227Z,9.82
2022-12-03T18:08:23.948Z,10.88
2022-12-03T18:10:50.631Z,8.45
2022-12-03T18:13:17.337Z,9.23
2022-12-03T18:15:43.986Z,11.80
2022-12-03T18:18:10.685Z,8.13
2022-12-03T18:20:37.438Z,9.98
2022-12-03T18:23:04.029Z,10.65
2022-12-03T18:25:30.585Z,9.38
2022-12-03T18:27:57.190Z,10.48
2022-12-03T18:30:23.781Z,10.30
2022-12-03T18:32:50.889Z,9.25
2022-12-03T18:35:18.048Z,10.07
2022-12-03T18:37:44.724Z,9.95
2022-12-03T18:40:22.680Z,9.45
2022-12-03T18:42:49.265Z,9.45
2022-12-03T18:45:16.336Z,10.93
2022-12-03T18:47:43.061Z,8.55
2022-12-03T18:50:10.011Z,8.70
2022-12-03T18:52:36.622Z,9.25
2022-12-03T18:55:03.928Z,10.13
2022-12-03T18:57:30.478Z,10.45
2022-12-03T18:59:57.298Z,9.88
2022-12-03T19:03:00.616Z,11.48
2022-12-03T19:05:10.870Z,11.48
2022-12-03T19:07:37.618Z,11.12
2022-12-03T19:10:04.664Z,11.10
2022-12-03T19:12:31.702Z,11.82
2022-12-03T19:14:58.493Z,10.18
2022-12-03T19:17:27.047Z,11.80
2022-12-03T19:19:53.977Z,10.95
2022-12-03T19:22:20.868Z,12.18
2022-12-03T19:24:47.549Z,10.80
2022-12-03T19:27:14.233Z,10.68
2022-12-03T19:29:40.829Z,11.07
2022-12-03T19:32:07.460Z,10.23
2022-12-03T19:34:34.067Z,10.57
2022-12-03T19:37:00.669Z,10.90
2022-12-03T19:39:27.328Z,10.98
2022-12-03T19:41:53.912Z,11.85
2022-12-03T19:44:20.512Z,9.93
2022-12-03T19:46:51.177Z,9.65
2022-12-03T19:49:20.859Z,10.18
2022-12-03T19:51:47.543Z,10.38
2022-12-03T19:54:14.126Z,11.38
2022-12-03T19:56:40.723Z,12.10
2022-12-03T19:59:07.971Z,11.55
2022-12-03T20:01:35.348Z,9.82
2022-12-03T20:04:02.700Z,11.32
2022-12-03T20:06:31.592Z,10.85
2022-12-03T20:08:59.206Z,9.85
2022-12-03T20:11:27.865Z,11.23
2022-12-03T20:13:56.013Z,10.40
2022-12-03T20:16:22.782Z,11.05
2022-12-03T20:18:49.521Z,9.82
2022-12-03T20:21:17.614Z,10.38
2022-12-03T20:23:44.245Z,9.77
2022-12-03T20:26:12.890Z,9.75
2022-12-03T20:28:39.676Z,11.90
2022-12-03T20:31:10.720Z,11.52
2022-12-03T20:33:42.436Z,10.35
2022-12-03T20:36:09.937Z,11.32
2022-12-03T20:38:37.239Z,11.65
2022-12-03T20:41:08.740Z,10.80
2022-12-03T20:43:35.384Z,11.18
2022-12-03T20:46:15.380Z,10.63
2022-12-03T20:48:42.476Z,11.35
2022-12-03T20:51:10.673Z,10.55
2022-12-03T20:53:37.365Z,11.27
2022-12-03T20:56:04.523Z,9.75
2022-12-03T20:58:31.298Z,11.93
2022-12-03T21:01:16.169Z,11.02
2022-12-03T21:03:43.624Z,13.00
2022-12-03T21:06:10.360Z,10.35
2022-12-03T21:08:41.625Z,10.20
2022-12-03T21:11:19.656Z,10.95
2022-12-03T21:13:46.482Z,11.20
2022-12-03T21:16:17.575Z,10.95
2022-12-03T21:18:44.184Z,9.95
2022-12-03T21:21:11.050Z,10.25
2022-12-03T21:23:37.636Z,11.65
2022-12-03T21:26:04.796Z,10.38
2022-12-03T21:28:31.508Z,9.73
2022-12-03T21:31:06.166Z,10.18
2022-12-03T21:33:32.900Z,10.57
2022-12-03T21:35:59.729Z,10.38
2022-12-03T21:38:26.433Z,10.65
2022-12-03T21:40:53.186Z,12.23
2022-12-03T21:43:19.744Z,9.85
2022-12-03T21:45:46.383Z,11.10
2022-12-03T21:48:13.590Z,10.20
2022-12-03T21:50:40.188Z,11.30
2022-12-03T21:53:06.863Z,10.75
2022-12-03T21:55:33.499Z,11.57
2022-12-03T21:58:00.116Z,9.85
2022-12-03T22:00:26.747Z,9.95
2022-12-03T22:02:53.372Z,10.80
2022-12-03T22:05:20.015Z,11.85
2022-12-03T22:07:46.645Z,11.38
2022-12-03T22:10:13.274Z,10.63
2022-12-03T22:12:41.835Z,11.10
2022-12-03T22:15:13.533Z,10.60
2022-12-03T22:17:45.347Z,12.70
2022-12-03T22:20:12.331Z,12.23
2022-12-03T22:22:38.953Z,10.70
2022-12-03T22:25:05.625Z,9.73
2022-12-03T22:27:32.204Z,11.25
2022-12-03T22:29:58.781Z,12.82
2022-12-03T22:32:25.785Z,12.45
2022-12-03T22:34:52.384Z,11.10
2022-12-03T22:37:18.932Z,11.82
2022-12-03T22:39:45.481Z,11.32
2022-12-03T22:42:12.087Z,11.45
2022-12-03T22:44:38.643Z,12.95
2022-12-03T22:47:05.311Z,12.15
2022-12-03T22:49:31.956Z,11.12
2022-12-03T22:51:58.526Z,11.07
2022-12-03T22:54:25.098Z,10.20
2022-12-03T22:56:51.750Z,10.82
2022-12-03T22:59:18.510Z,10.57
2022-12-03T23:01:45.565Z,12.73
2022-12-03T23:04:12.259Z,11.10
2022-12-03T23:06:38.944Z,10.45
2022-12-03T23:09:06.004Z,11.68
2022-12-03T23:11:32.691Z,11.48
2022-12-03T23:13:59.649Z,12.65
2022-12-03T23:16:28.199Z,11.25
2022-12-03T23:18:54.849Z,10.88
2022-12-03T23:21:28.986Z,11.12
2022-12-03T23:23:57.305Z,10.68
2022-12-03T23:26:23.933Z,13.60
2022-12-03T23:28:50.546Z,11.55
2022-12-03T23:31:24.635Z,11.20
2022-12-03T23:33:51.392Z,11.60
2022-12-03T23:36:18.001Z,12.18
2022-12-03T23:38:44.638Z,12.57
2022-12-03T23:41:15.580Z,10.20
2022-12-03T23:43:42.194Z,11.18
2022-12-03T23:46:10.778Z,12.05
2022-12-03T23:48:37.373Z,11.75
2022-12-03T23:51:12.275Z,11.57
2022-12-03T23:53:38.933Z,12.37
2022-12-03T23:56:09.576Z,11.02
2022-12-03T23:58:36.129Z,10.73
